Share

Papaaloa, HI

Hamakua Coast (KHININOL2) Elev 1120 ft | 19.92 °N, 155.18 °W | Change Station

Current weather conditions updated 9 minutes ago

Mostly Cloudy
Mostly Cloudy
69.8 °F
Feels Like 69.8 °F
N
0.0
Wind Variable Wind from ENE
Sunrise 6:00 AM
Sunset 6:39 PM
Moon Waning Gibbous

Tomorrow is forecast to be nearly the same temperature as today.

Pressure 30.01 in
Visibility 10.0 miles
Clouds Few 3900 ft
Mostly Cloudy 6000 ft
Dew Point 67 °F
Humidity 91%
Rainfall 1.27 in
Snow Depth Not available.
UV 0 out of 16
Pollen Not available.
PM2.5 Good
Flu Activity Local Activity
METAR PHKO 190353Z 28008KT 10SM FEW039 BKN060 27/20 A3001 RMK AO2 SLP162 T02670200

More Conditions Fewer Conditions

Pressure 30.01 in
Visibility 10.0 miles
Clouds Few 3900 ft
Mostly Cloudy 6000 ft
Dew Point 67 °F
Humidity 91%
Rainfall 1.27 in
Snow Depth Not available.
UV 0 out of 16
Pollen Not available.
PM2.5 Good
Flu Activity Local Activity
METAR PHKO 190353Z 28008KT 10SM FEW039 BKN060 27/20 A3001 RMK AO2 SLP162 T02670200

More Conditions Fewer Conditions

10-Day Weather Forecast

Almanac

Astronomy

Apr. 18, 2014 Rise Set
Actual Time 6:00 AM HST 6:39 PM HST
Civil Twilight 5:37 AM HST 7:02 PM HST
Nautical Twilight 5:11 AM HST 7:29 PM HST
Astronomical Twilight 4:44 AM HST 7:55 PM HST
Moon 10:18 PM HST (4/18) 8:49 AM HST (4/18)
Length of Visible Light 13h 24m
Length of Day
12h 39m
Tomorrow will be 1m 4s longer.
Waning Gibbous, 83% of the Moon is Illuminated
Apr 19
Waning Gibbous
Apr 22
Last Quarter
Apr 29
New
May 6
First Quarter
May 14
Full

Yesterday's Extremes

State Highs State Lows

Community

  • Sunset Silhouettes
    Sunset Silhouettes
  • FL sunset Perico Isle
    FL sunset Perico Isle
  • Cloudy spring view
    Cloudy spring view
  • Old barn
    Old barn
  • What's for Lunch?
    What's for Lunch?

WunderPhotos

Upload Photos

1,702,640 photos uploaded!

WunderBlogs® & News

Nearby

Air Quality

  Air Quality AQ Index Pollutant
Yesterday Good
PM2.5
Current Good
PM2.5

Snow Depth

Station Depth Elevation
No new snow has been reported.

Coastal Water Temperatures

Place Temperature
No Stations Reporting

Earthquake Activity

City Distance Mag. Time & Date
No recent earthquake activity has been reported nearby.
Minimum magnitude displayed is 2.5.

Nearby Weather Stations

Station Location Temp. Heat Index Dew Point Humidity Wind Precip. Elev Updated Type
Hamakua Coast, Ninole, HI 69.8 °F - 67 °F 91% ENE  at  0.0 mph - / hr 1120 ft 6:41 PM HST Normal
Kaupakuea, Pepeekeo, HI 72.7 °F 72 °F 68 °F 85% NNE  at  0.0 mph 0.00 in / hr 643 ft 6:49 PM HST Normal
Honoka'a Town, Honokaa, HI 69.7 °F - 67 °F 90% ENE  at  6.0 mph 0.00 in / hr 1075 ft 6:49 PM HST Normal
Honomu, Honomu, HI 73.7 °F 73 °F 69 °F 84% SSE  at  0.0 mph 0.00 in / hr 303 ft 6:37 PM HST Normal

Show More Stations Show Fewer Stations

What do you think?

We're not finished. Please let us know what you like, what you don't like, and what you are still missing.